Kissimmee, Florida
Current Conditions -  °F | °C
As of 8:50 PM on Friday 21 Nov 2014 (Local Time) from KISM Reporting Station
Overcast Overcast  
Wind Chill: 66°   Ceiling: 9000
Heat Index: 66°   Visibility: 10mi
Dew Point: 57°   Wind: 5mph
Humidity: 73%   Direction: 20°NNE
Pressure: 30.27"   Gusts: NA
Location:  28.29°N, 81.41°W
Report Text: KISM 220150Z 02004KT 10SM OVC090 19/14 A3027
Loading
Personal Weather Stations






























Interactive Weather Map New forecast layout! Learn more

10-Day Weather Forecast

Advertisements
Track Severe Weather on mobile